createdAt,value
2017-08-23T00:00:45.611Z,15.40
2017-08-23T00:03:14.575Z,15.30
2017-08-23T00:05:43.523Z,15.30
2017-08-23T00:08:12.479Z,15.30
2017-08-23T00:10:41.428Z,15.30
2017-08-23T00:13:10.407Z,15.30
2017-08-23T00:15:39.351Z,15.20
2017-08-23T00:18:08.298Z,15.20
2017-08-23T00:20:37.260Z,15.20
2017-08-23T00:23:06.211Z,15.20
2017-08-23T00:25:35.176Z,15.20
2017-08-23T00:28:04.135Z,15.10
2017-08-23T00:30:33.095Z,15.10
2017-08-23T00:33:02.044Z,15.10
2017-08-23T00:35:31.013Z,15.00
2017-08-23T00:37:59.963Z,15.00
2017-08-23T00:40:28.920Z,15.00
2017-08-23T00:42:57.876Z,14.90
2017-08-23T00:45:26.835Z,14.90
2017-08-23T00:47:55.786Z,14.90
2017-08-23T00:50:24.747Z,14.90
2017-08-23T00:52:53.706Z,14.90
2017-08-23T00:55:22.659Z,14.80
2017-08-23T00:57:51.619Z,14.80
2017-08-23T01:00:20.828Z,14.80
2017-08-23T01:02:50.371Z,14.80
2017-08-23T01:05:20.259Z,14.80
2017-08-23T01:07:49.216Z,14.80
2017-08-23T01:10:18.171Z,14.80
2017-08-23T01:12:47.127Z,14.80
2017-08-23T01:15:16.156Z,14.80
2017-08-23T01:17:45.102Z,14.70
2017-08-23T01:20:14.079Z,14.70
2017-08-23T01:22:43.032Z,14.60
2017-08-23T01:25:11.991Z,14.60
2017-08-23T01:27:40.957Z,14.70
2017-08-23T01:30:09.912Z,14.60
2017-08-23T01:32:38.871Z,14.60
2017-08-23T01:35:07.818Z,14.60
2017-08-23T01:37:36.780Z,14.60
2017-08-23T01:40:05.751Z,14.60
2017-08-23T01:42:34.711Z,14.60
2017-08-23T01:45:03.667Z,14.70
2017-08-23T01:47:32.622Z,14.70
2017-08-23T01:50:01.578Z,14.70
2017-08-23T01:52:31.296Z,14.70
2017-08-23T01:55:00.257Z,14.60
2017-08-23T01:57:29.216Z,14.70
2017-08-23T01:59:58.176Z,14.80
2017-08-23T02:02:27.131Z,14.80
2017-08-23T02:04:56.083Z,14.90
2017-08-23T02:07:25.045Z,14.90
2017-08-23T02:09:54.025Z,14.90
2017-08-23T02:12:22.959Z,14.90
2017-08-23T02:14:51.923Z,14.90
2017-08-23T02:17:20.876Z,14.90
2017-08-23T02:19:49.831Z,14.90
2017-08-23T02:22:18.799Z,14.90
2017-08-23T02:24:47.752Z,14.90
2017-08-23T02:27:16.697Z,15.00
2017-08-23T02:29:45.651Z,15.10
2017-08-23T02:32:14.622Z,15.10
2017-08-23T02:34:43.575Z,15.10
2017-08-23T02:37:12.524Z,15.10
2017-08-23T02:39:41.479Z,15.10
2017-08-23T02:42:10.423Z,15.10
2017-08-23T02:44:39.515Z,15.10
2017-08-23T02:47:08.540Z,15.10
2017-08-23T02:49:37.499Z,15.00
2017-08-23T02:52:06.442Z,15.00
2017-08-23T02:54:35.403Z,15.00
2017-08-23T02:57:04.359Z,15.10
2017-08-23T02:59:33.317Z,15.10
2017-08-23T03:02:02.276Z,15.10
2017-08-23T03:04:31.222Z,15.10
2017-08-23T03:07:00.179Z,15.10
2017-08-23T03:09:29.134Z,15.00
2017-08-23T03:11:58.092Z,15.00
2017-08-23T03:14:27.051Z,15.00
2017-08-23T03:16:56.022Z,15.00
2017-08-23T03:19:24.987Z,15.00
2017-08-23T03:21:53.936Z,15.00
2017-08-23T03:24:22.888Z,15.10
2017-08-23T03:26:51.842Z,15.10
2017-08-23T03:29:20.795Z,15.10
2017-08-23T03:31:49.746Z,15.20
2017-08-23T03:34:18.702Z,15.10
2017-08-23T03:36:47.655Z,15.10
2017-08-23T03:39:16.623Z,15.10
2017-08-23T03:41:45.572Z,15.20
2017-08-23T03:44:14.549Z,15.20
2017-08-23T03:46:43.491Z,15.20
2017-08-23T03:49:12.435Z,15.20
2017-08-23T03:51:41.398Z,15.20
2017-08-23T03:54:10.342Z,15.20
2017-08-23T03:56:39.299Z,15.20
2017-08-23T03:59:08.245Z,15.20
2017-08-23T04:01:37.195Z,15.20
2017-08-23T04:04:06.151Z,15.30
2017-08-23T04:06:35.122Z,15.30
2017-08-23T04:09:04.104Z,15.30
2017-08-23T04:11:33.051Z,15.20
2017-08-23T04:14:02.007Z,15.20
2017-08-23T04:16:30.958Z,15.20
2017-08-23T04:18:59.920Z,15.20
2017-08-23T04:21:28.866Z,15.20
2017-08-23T04:23:57.824Z,15.20
2017-08-23T04:26:26.772Z,15.20
2017-08-23T04:28:55.747Z,15.30
2017-08-23T04:31:24.695Z,15.20
2017-08-23T04:33:53.639Z,15.20
2017-08-23T04:36:24.786Z,15.20
2017-08-23T04:38:53.756Z,15.20
2017-08-23T04:41:22.707Z,15.20
2017-08-23T04:43:51.656Z,15.20
2017-08-23T04:46:20.627Z,15.20
2017-08-23T04:48:49.575Z,15.20
2017-08-23T04:51:18.523Z,15.20
2017-08-23T04:53:49.379Z,15.20
2017-08-23T04:56:18.322Z,15.10
2017-08-23T04:58:47.291Z,15.10
2017-08-23T05:01:17.168Z,15.20
2017-08-23T05:03:46.119Z,15.20
2017-08-23T05:06:15.080Z,15.20
2017-08-23T05:08:44.048Z,15.30
2017-08-23T05:11:12.994Z,15.40
2017-08-23T05:13:41.949Z,15.50
2017-08-23T05:16:10.899Z,15.50
2017-08-23T05:18:39.851Z,15.60
2017-08-23T05:21:08.807Z,15.80
2017-08-23T05:23:37.767Z,15.90
2017-08-23T05:26:06.719Z,16.00
2017-08-23T05:28:35.682Z,16.10
2017-08-23T05:31:04.675Z,16.10
2017-08-23T05:33:33.647Z,16.20
2017-08-23T05:36:02.599Z,16.30
2017-08-23T05:38:31.568Z,16.40
2017-08-23T05:41:00.516Z,16.50
2017-08-23T05:43:29.483Z,16.60
2017-08-23T05:45:58.447Z,16.60
2017-08-23T05:48:27.411Z,16.70
2017-08-23T05:50:56.387Z,16.80
2017-08-23T05:53:25.352Z,16.80
2017-08-23T05:55:54.316Z,16.90
2017-08-23T05:58:23.269Z,17.00
2017-08-23T06:00:52.302Z,17.10
2017-08-23T06:03:21.234Z,17.30
2017-08-23T06:05:50.202Z,17.30
2017-08-23T06:08:19.162Z,17.40
2017-08-23T06:10:48.118Z,17.40
2017-08-23T06:13:17.071Z,17.50
2017-08-23T06:15:46.031Z,17.60
2017-08-23T06:18:14.987Z,17.70
2017-08-23T06:20:43.959Z,17.80
2017-08-23T06:23:12.919Z,17.90
2017-08-23T06:25:41.892Z,18.00
2017-08-23T06:28:10.875Z,18.20
2017-08-23T06:30:39.838Z,18.30
2017-08-23T06:33:08.794Z,18.40
2017-08-23T06:35:37.755Z,18.50
2017-08-23T06:38:06.711Z,18.60
2017-08-23T06:40:35.680Z,18.70
2017-08-23T06:43:04.635Z,18.80
2017-08-23T06:45:33.594Z,18.90
2017-08-23T06:48:02.573Z,19.00
2017-08-23T06:50:31.635Z,19.10
2017-08-23T06:53:00.588Z,19.30
2017-08-23T06:55:29.570Z,19.60
2017-08-23T06:57:58.529Z,19.80
2017-08-23T07:00:27.499Z,19.90
2017-08-23T07:02:56.458Z,20.00
2017-08-23T07:05:25.411Z,20.10
2017-08-23T07:07:54.384Z,20.30
2017-08-23T07:10:23.344Z,20.50
2017-08-23T07:12:52.323Z,20.80
2017-08-23T07:15:21.268Z,21.10
2017-08-23T07:17:50.231Z,21.40
2017-08-23T07:20:19.191Z,21.70
2017-08-23T07:22:48.160Z,22.00
2017-08-23T07:25:17.116Z,22.30
2017-08-23T07:27:46.088Z,22.50
2017-08-23T07:30:15.044Z,22.70
2017-08-23T07:32:44.423Z,23.00
2017-08-23T07:35:13.362Z,23.20
2017-08-23T07:37:42.335Z,23.40
2017-08-23T07:40:11.292Z,23.60
2017-08-23T07:42:40.255Z,23.80
2017-08-23T07:45:09.202Z,23.90
2017-08-23T07:47:38.168Z,24.10
2017-08-23T07:50:07.116Z,24.40
2017-08-23T07:52:36.172Z,24.50
2017-08-23T07:55:05.119Z,24.60
2017-08-23T07:57:34.078Z,24.80
2017-08-23T08:00:03.023Z,24.90
2017-08-23T08:02:31.987Z,25.00
2017-08-23T08:05:00.939Z,25.10
2017-08-23T08:07:29.919Z,25.20
2017-08-23T08:09:58.866Z,25.30
2017-08-23T08:12:27.815Z,25.40
2017-08-23T08:14:56.795Z,25.50
2017-08-23T08:17:25.740Z,25.70
2017-08-23T08:19:54.694Z,25.90
2017-08-23T08:22:23.683Z,26.00
2017-08-23T08:24:52.643Z,26.30
2017-08-23T08:27:21.590Z,26.40
2017-08-23T08:29:50.582Z,26.60
2017-08-23T08:32:19.534Z,26.80
2017-08-23T08:34:48.495Z,27.00
2017-08-23T08:37:17.442Z,27.10
2017-08-23T08:39:46.406Z,27.10
2017-08-23T08:42:15.363Z,27.20
2017-08-23T08:44:44.322Z,27.20
2017-08-23T08:47:13.276Z,27.40
2017-08-23T08:49:42.253Z,27.70
2017-08-23T08:52:11.190Z,28.00
2017-08-23T08:54:40.163Z,28.30
2017-08-23T08:57:09.111Z,28.60
2017-08-23T08:59:38.091Z,28.70
2017-08-23T09:02:07.043Z,28.90
2017-08-23T09:04:35.996Z,29.10
2017-08-23T09:07:04.942Z,29.40
2017-08-23T09:09:33.907Z,29.60
2017-08-23T09:12:02.851Z,29.90
2017-08-23T09:14:31.827Z,30.20
2017-08-23T09:17:00.771Z,30.30
2017-08-23T09:19:29.719Z,30.40
2017-08-23T09:21:58.686Z,30.60
2017-08-23T09:24:27.643Z,30.90
2017-08-23T09:26:56.615Z,31.10
2017-08-23T09:29:25.568Z,31.30
2017-08-23T09:31:54.526Z,31.40
2017-08-23T09:34:23.484Z,31.50
2017-08-23T09:36:52.459Z,31.70
2017-08-23T09:39:21.403Z,31.80
2017-08-23T09:41:50.371Z,31.90
2017-08-23T09:44:19.315Z,32.00
2017-08-23T09:46:48.280Z,32.30
2017-08-23T09:49:17.227Z,32.60
2017-08-23T09:51:46.191Z,32.90
2017-08-23T09:54:15.148Z,33.00
2017-08-23T09:56:44.108Z,33.10
2017-08-23T09:59:17.621Z,33.30
2017-08-23T10:01:47.711Z,33.40
2017-08-23T10:04:16.663Z,33.60
2017-08-23T10:06:45.614Z,33.70
2017-08-23T10:09:14.563Z,33.70
2017-08-23T10:11:43.550Z,34.00
2017-08-23T10:14:12.495Z,34.30
2017-08-23T10:16:41.439Z,34.60
2017-08-23T10:19:10.399Z,34.90
2017-08-23T10:21:39.350Z,35.10
2017-08-23T10:24:08.308Z,35.30
2017-08-23T10:26:37.266Z,35.50
2017-08-23T10:29:06.219Z,35.60
2017-08-23T10:31:35.175Z,35.90
2017-08-23T10:34:04.131Z,36.20
2017-08-23T10:36:33.083Z,36.50
2017-08-23T10:39:02.027Z,36.80
2017-08-23T10:41:31.053Z,37.10
2017-08-23T10:43:59.984Z,37.20
2017-08-23T10:46:28.947Z,37.30
2017-08-23T10:48:57.910Z,37.40
2017-08-23T10:51:26.859Z,37.60
2017-08-23T10:53:56.256Z,37.70
2017-08-23T10:56:25.222Z,37.70
2017-08-23T10:58:54.167Z,37.90
2017-08-23T11:01:23.122Z,37.90
2017-08-23T11:03:52.090Z,37.90
2017-08-23T11:06:21.063Z,37.90
2017-08-23T11:08:50.023Z,38.20
2017-08-23T11:11:18.976Z,38.50
2017-08-23T11:13:47.931Z,38.60
2017-08-23T11:16:16.879Z,38.70
2017-08-23T11:18:45.948Z,38.70
2017-08-23T11:21:14.847Z,38.70
2017-08-23T11:23:43.799Z,39.00
2017-08-23T11:26:12.766Z,39.10
2017-08-23T11:28:41.715Z,39.20
2017-08-23T11:31:10.668Z,39.40
2017-08-23T11:33:39.625Z,39.60
2017-08-23T11:36:08.575Z,39.80
2017-08-23T11:38:37.520Z,39.80
2017-08-23T11:41:06.500Z,39.80
2017-08-23T11:43:35.442Z,40.20
2017-08-23T11:46:04.392Z,40.30
2017-08-23T11:48:33.354Z,40.40
2017-08-23T11:51:02.309Z,40.50
2017-08-23T11:53:31.258Z,40.70
2017-08-23T11:56:00.204Z,41.00
2017-08-23T11:58:29.189Z,41.10
2017-08-23T12:00:58.110Z,41.30
2017-08-23T12:03:27.087Z,41.50
2017-08-23T12:05:56.035Z,41.70
2017-08-23T12:08:24.983Z,41.90
2017-08-23T12:10:53.938Z,42.00
2017-08-23T12:13:22.886Z,42.00
2017-08-23T12:15:51.858Z,42.10
2017-08-23T12:18:20.803Z,42.20
2017-08-23T12:20:49.769Z,42.20
2017-08-23T12:23:18.723Z,42.20
2017-08-23T12:25:47.698Z,42.30
2017-08-23T12:28:16.651Z,42.60
2017-08-23T12:30:45.594Z,42.80
2017-08-23T12:33:14.555Z,42.80
2017-08-23T12:35:43.506Z,42.80
2017-08-23T12:38:12.458Z,43.10
2017-08-23T12:40:41.415Z,43.10
2017-08-23T12:43:10.387Z,43.10
2017-08-23T12:45:39.332Z,43.10
2017-08-23T12:48:08.291Z,43.00
2017-08-23T12:50:37.236Z,42.80
2017-08-23T12:53:06.194Z,42.60
2017-08-23T12:55:35.151Z,42.70
2017-08-23T12:58:04.107Z,42.80
2017-08-23T13:00:33.065Z,43.10
2017-08-23T13:03:02.020Z,43.40
2017-08-23T13:05:30.979Z,43.80
2017-08-23T13:07:59.931Z,44.20
2017-08-23T13:10:28.904Z,44.50
2017-08-23T13:12:57.911Z,44.70
2017-08-23T13:15:26.891Z,44.50
2017-08-23T13:17:55.842Z,44.50
2017-08-23T13:20:24.795Z,44.70
2017-08-23T13:22:53.756Z,45.00
2017-08-23T13:25:22.715Z,45.30
2017-08-23T13:27:51.671Z,45.50
2017-08-23T13:30:20.624Z,45.70
2017-08-23T13:32:49.595Z,45.70
2017-08-23T13:35:18.543Z,45.60
2017-08-23T13:37:47.503Z,45.70
2017-08-23T13:40:16.469Z,45.80
2017-08-23T13:42:45.418Z,45.80
2017-08-23T13:45:14.376Z,45.80
2017-08-23T13:47:43.322Z,45.90
2017-08-23T13:50:12.278Z,46.00
2017-08-23T13:52:41.224Z,45.90
2017-08-23T13:55:10.207Z,46.00
2017-08-23T13:57:39.156Z,45.90
2017-08-23T14:00:08.132Z,45.70
2017-08-23T14:02:37.087Z,45.60
2017-08-23T14:05:06.039Z,45.60
2017-08-23T14:07:35.004Z,45.80
2017-08-23T14:10:03.959Z,45.80
2017-08-23T14:12:32.922Z,45.90
2017-08-23T14:15:01.872Z,45.90
2017-08-23T14:17:30.843Z,46.10
2017-08-23T14:19:59.799Z,46.10
2017-08-23T14:22:28.785Z,46.10
2017-08-23T14:24:57.722Z,46.20
2017-08-23T14:27:26.667Z,46.30
2017-08-23T14:29:55.622Z,46.20
2017-08-23T14:32:24.571Z,46.10
2017-08-23T14:34:53.532Z,46.10
2017-08-23T14:37:22.479Z,46.00
2017-08-23T14:39:51.460Z,45.90
2017-08-23T14:42:20.424Z,45.80
2017-08-23T14:44:49.379Z,45.60
2017-08-23T14:47:18.337Z,45.50
2017-08-23T14:49:47.291Z,45.30
2017-08-23T14:52:16.264Z,45.20
2017-08-23T14:54:45.219Z,45.00
2017-08-23T14:57:14.186Z,44.80
2017-08-23T14:59:43.144Z,44.70
2017-08-23T15:02:12.140Z,44.40
2017-08-23T15:04:41.088Z,44.20
2017-08-23T15:07:10.041Z,44.10
2017-08-23T15:09:39.003Z,43.90
2017-08-23T15:12:07.967Z,43.90
2017-08-23T15:14:36.928Z,43.70
2017-08-23T15:17:05.887Z,43.40
2017-08-23T15:19:34.855Z,43.10
2017-08-23T15:22:03.808Z,42.80
2017-08-23T15:24:32.763Z,42.40
2017-08-23T15:27:01.707Z,41.80
2017-08-23T15:29:30.679Z,41.10
2017-08-23T15:31:59.635Z,40.40
2017-08-23T15:34:28.590Z,39.90
2017-08-23T15:36:57.551Z,39.40
2017-08-23T15:39:26.499Z,39.10
2017-08-23T15:41:55.459Z,39.00
2017-08-23T15:44:24.407Z,39.10
2017-08-23T15:46:53.369Z,39.30
2017-08-23T15:49:22.316Z,39.40
2017-08-23T15:51:51.282Z,39.50
2017-08-23T15:54:20.238Z,39.50
2017-08-23T15:56:49.191Z,39.30
2017-08-23T15:59:18.138Z,39.00
2017-08-23T16:01:47.088Z,38.70
2017-08-23T16:04:16.048Z,38.40
2017-08-23T16:06:45.004Z,38.10
2017-08-23T16:09:13.955Z,37.90
2017-08-23T16:11:42.907Z,37.80
2017-08-23T16:14:11.879Z,37.90
2017-08-23T16:16:40.828Z,38.00
2017-08-23T16:19:09.786Z,38.10
2017-08-23T16:21:38.737Z,38.10
2017-08-23T16:24:07.683Z,38.10
2017-08-23T16:26:36.669Z,38.10
2017-08-23T16:29:05.595Z,38.00
2017-08-23T16:31:34.551Z,38.00
2017-08-23T16:34:03.499Z,37.80
2017-08-23T16:36:32.471Z,37.60
2017-08-23T16:39:01.420Z,37.30
2017-08-23T16:41:30.368Z,37.00
2017-08-23T16:43:59.328Z,36.80
2017-08-23T16:46:28.279Z,36.50
2017-08-23T16:48:57.236Z,36.30
2017-08-23T16:51:26.183Z,36.00
2017-08-23T16:53:55.847Z,35.70
2017-08-23T16:56:24.802Z,35.50
2017-08-23T16:58:53.779Z,35.20
2017-08-23T17:01:22.724Z,35.10
2017-08-23T17:03:51.676Z,35.00
2017-08-23T17:06:20.641Z,34.70
2017-08-23T17:08:49.583Z,34.60
2017-08-23T17:11:18.544Z,34.40
2017-08-23T17:13:47.491Z,34.10
2017-08-23T17:16:16.443Z,33.90
2017-08-23T17:18:45.394Z,33.60
2017-08-23T17:21:14.371Z,33.40
2017-08-23T17:23:43.316Z,33.10
2017-08-23T17:26:12.263Z,32.80
2017-08-23T17:28:41.219Z,32.50
2017-08-23T17:31:10.167Z,32.20
2017-08-23T17:33:39.114Z,31.80
2017-08-23T17:36:08.059Z,31.30
2017-08-23T17:38:37.017Z,30.70
2017-08-23T17:41:05.963Z,30.10
2017-08-23T17:43:34.955Z,29.50
2017-08-23T17:46:03.892Z,28.90
2017-08-23T17:48:32.835Z,28.40
2017-08-23T17:51:01.797Z,27.90
2017-08-23T17:53:30.777Z,27.50
2017-08-23T17:55:59.712Z,27.10
2017-08-23T17:58:28.656Z,26.70
2017-08-23T18:00:57.637Z,26.50
2017-08-23T18:03:26.592Z,26.20
2017-08-23T18:05:55.540Z,26.00
2017-08-23T18:08:24.503Z,25.70
2017-08-23T18:10:53.462Z,25.50
2017-08-23T18:13:22.417Z,25.30
2017-08-23T18:15:51.364Z,25.00
2017-08-23T18:18:20.324Z,24.80
2017-08-23T18:20:49.279Z,24.60
2017-08-23T18:23:18.266Z,24.40
2017-08-23T18:25:47.215Z,24.10
2017-08-23T18:28:16.173Z,24.00
2017-08-23T18:30:45.124Z,23.90
2017-08-23T18:33:14.075Z,23.70
2017-08-23T18:35:43.022Z,23.60
2017-08-23T18:38:11.976Z,23.50
2017-08-23T18:40:40.928Z,23.40
2017-08-23T18:43:09.892Z,23.30
2017-08-23T18:45:38.866Z,23.20
2017-08-23T18:48:07.814Z,23.10
2017-08-23T18:50:36.772Z,23.10
2017-08-23T18:53:05.732Z,23.00
2017-08-23T18:55:34.691Z,22.90
2017-08-23T18:58:03.648Z,22.80
2017-08-23T19:00:32.614Z,22.60
2017-08-23T19:03:01.609Z,22.60
2017-08-23T19:05:30.556Z,22.50
2017-08-23T19:07:59.511Z,22.40
2017-08-23T19:10:28.471Z,22.40
2017-08-23T19:12:57.436Z,22.30
2017-08-23T19:15:26.403Z,22.20
2017-08-23T19:17:55.356Z,22.20
2017-08-23T19:20:24.334Z,22.20
2017-08-23T19:22:53.283Z,22.10
2017-08-23T19:25:22.283Z,22.00
2017-08-23T19:27:51.243Z,21.90
2017-08-23T19:30:20.208Z,21.70
2017-08-23T19:32:49.203Z,21.70
2017-08-23T19:35:18.167Z,21.60
2017-08-23T19:37:47.123Z,21.60
2017-08-23T19:40:16.088Z,21.50
2017-08-23T19:42:45.036Z,21.40
2017-08-23T19:45:14.011Z,21.40
2017-08-23T19:47:42.965Z,21.40
2017-08-23T19:50:11.927Z,21.30
2017-08-23T19:52:41.831Z,21.20
2017-08-23T19:55:10.791Z,21.10
2017-08-23T19:57:39.772Z,21.10
2017-08-23T20:00:08.715Z,21.00
2017-08-23T20:02:37.691Z,20.90
2017-08-23T20:05:06.661Z,20.90
2017-08-23T20:07:35.608Z,20.80
2017-08-23T20:10:04.579Z,20.80
2017-08-23T20:12:33.584Z,20.80
2017-08-23T20:15:03.558Z,20.70
2017-08-23T20:17:32.509Z,20.70
2017-08-23T20:20:01.487Z,20.60
2017-08-23T20:22:30.795Z,20.50
2017-08-23T20:24:59.748Z,20.50
2017-08-23T20:27:28.699Z,20.40
2017-08-23T20:29:57.659Z,20.40
2017-08-23T20:32:26.607Z,20.40
2017-08-23T20:34:55.583Z,20.30
2017-08-23T20:37:24.541Z,20.30
2017-08-23T20:39:53.483Z,20.30
2017-08-23T20:42:22.448Z,20.20
2017-08-23T20:44:51.525Z,20.20
2017-08-23T20:47:20.605Z,20.20
2017-08-23T20:49:49.603Z,20.20
2017-08-23T20:52:19.102Z,20.10
2017-08-23T20:54:48.263Z,20.10
2017-08-23T20:57:17.226Z,20.10
2017-08-23T20:59:46.705Z,20.10
2017-08-23T21:02:15.836Z,20.00
2017-08-23T21:04:44.812Z,20.10
2017-08-23T21:07:13.764Z,20.00
2017-08-23T21:09:42.832Z,19.90
2017-08-23T21:12:12.203Z,19.90
2017-08-23T21:14:41.155Z,19.80
2017-08-23T21:17:10.825Z,19.80
2017-08-23T21:19:40.195Z,19.80
2017-08-23T21:22:09.528Z,19.80
2017-08-23T21:24:38.551Z,19.80
2017-08-23T21:27:07.646Z,19.70
2017-08-23T21:29:38.291Z,19.70
2017-08-23T21:32:16.570Z,19.70
2017-08-23T21:34:48.880Z,19.70
2017-08-23T21:37:20.215Z,19.70
2017-08-23T21:39:52.294Z,19.60
2017-08-23T21:42:24.663Z,19.50
2017-08-23T21:45:11.859Z,19.50
2017-08-23T21:47:42.068Z,19.50
2017-08-23T21:50:11.496Z,19.40
2017-08-23T21:52:40.587Z,19.40
2017-08-23T21:55:09.530Z,19.40
2017-08-23T21:57:38.504Z,19.40
2017-08-23T22:00:07.705Z,19.40
2017-08-23T22:02:36.647Z,19.40
2017-08-23T22:05:05.600Z,19.30
2017-08-23T22:07:34.635Z,19.30
2017-08-23T22:10:03.595Z,19.30
2017-08-23T22:12:35.247Z,19.30
2017-08-23T22:15:04.326Z,19.20
2017-08-23T22:17:33.338Z,19.20
2017-08-23T22:20:02.392Z,19.20
2017-08-23T22:22:31.435Z,19.20
2017-08-23T22:25:00.454Z,19.20
2017-08-23T22:27:29.412Z,19.10
2017-08-23T22:29:58.362Z,19.10
2017-08-23T22:32:27.344Z,19.10
2017-08-23T22:34:56.296Z,19.10
2017-08-23T22:37:25.255Z,19.10
2017-08-23T22:39:54.199Z,19.00
2017-08-23T22:42:23.190Z,19.00
2017-08-23T22:44:52.140Z,19.00
2017-08-23T22:47:21.083Z,19.00
2017-08-23T22:49:50.173Z,19.00
2017-08-23T22:52:19.411Z,19.00
2017-08-23T22:54:48.451Z,19.00
2017-08-23T22:57:17.403Z,18.90
2017-08-23T22:59:46.359Z,18.90
2017-08-23T23:02:15.331Z,18.90
2017-08-23T23:04:44.278Z,18.90
2017-08-23T23:07:13.227Z,18.90
2017-08-23T23:09:42.350Z,18.90
2017-08-23T23:12:11.295Z,18.90
2017-08-23T23:14:40.262Z,19.00
2017-08-23T23:17:09.216Z,19.00
2017-08-23T23:19:38.403Z,19.00
2017-08-23T23:22:07.355Z,19.00
2017-08-23T23:24:37.319Z,18.90
2017-08-23T23:27:06.460Z,18.80
2017-08-23T23:29:35.503Z,18.90
2017-08-23T23:32:05.478Z,18.80
2017-08-23T23:34:34.438Z,18.80
2017-08-23T23:37:03.382Z,18.80
2017-08-23T23:39:32.351Z,18.70
2017-08-23T23:42:01.395Z,18.70
2017-08-23T23:44:30.349Z,18.70
2017-08-23T23:46:59.309Z,18.70
2017-08-23T23:49:28.254Z,18.70
2017-08-23T23:51:57.219Z,18.60
2017-08-23T23:54:26.167Z,18.60
2017-08-23T23:56:56.078Z,18.60
2017-08-23T23:59:25.035Z,18.60
